<?xml version="1.0" encoding="UTF-8"?>
<gpx xmlns="http://www.topografix.com/GPX/1/1" xmlns:xsi="http://www.w3.org/2001/XMLSchema-instance" version="1.1" xsi:schemaLocation="http://www.topografix.com/GPX/1/1 http://www.topografix.com/GPX/1/1/gpx.xsd">
  <metadata>
    <name>Back Bay Triathlon 2022</name>
  </metadata>
  <trk>
    <name>Back Bay Triathlon 2022</name>
    <trkseg>
      <trkpt lat="38.148954" lon="-75.286983">
        <ele>0.612366</ele>
        <time>2024-09-08T08:16:00.000Z</time>
      </trkpt>
      <trkpt lat="38.150045" lon="-75.286064">
        <ele>0.715022</ele>
        <time>2024-09-08T08:16:15.000Z</time>
      </trkpt>
      <trkpt lat="38.150391" lon="-75.286591">
        <ele>0.846883</ele>
        <time>2024-09-08T08:16:21.000Z</time>
      </trkpt>
      <trkpt lat="38.150602" lon="-75.286927">
        <ele>0.933453</ele>
        <time>2024-09-08T08:16:25.000Z</time>
      </trkpt>
      <trkpt lat="38.150956" lon="-75.287492">
        <ele>1.090048</ele>
        <time>2024-09-08T08:16:31.000Z</time>
      </trkpt>
      <trkpt lat="38.150977" lon="-75.287527">
        <ele>1.109129</ele>
        <time>2024-09-08T08:16:31.000Z</time>
      </trkpt>
      <trkpt lat="38.151002" lon="-75.287573">
        <ele>1.128567</ele>
        <time>2024-09-08T08:16:31.000Z</time>
      </trkpt>
      <trkpt lat="38.15099" lon="-75.287646">
        <ele>1.166672</ele>
        <time>2024-09-08T08:16:32.000Z</time>
      </trkpt>
      <trkpt lat="38.15082" lon="-75.287851">
        <ele>1.294108</ele>
        <time>2024-09-08T08:16:35.000Z</time>
      </trkpt>
      <trkpt lat="38.149964" lon="-75.288642">
        <ele>1.878356</ele>
        <time>2024-09-08T08:16:47.000Z</time>
      </trkpt>
      <trkpt lat="38.15094" lon="-75.290237">
        <ele>2.530032</ele>
        <time>2024-09-08T08:17:05.000Z</time>
      </trkpt>
      <trkpt lat="38.15256" lon="-75.292878">
        <ele>2.825045</ele>
        <time>2024-09-08T08:17:34.000Z</time>
      </trkpt>
      <trkpt lat="38.156049" lon="-75.298557">
        <ele>2.196715</ele>
        <time>2024-09-08T08:18:37.000Z</time>
      </trkpt>
      <trkpt lat="38.156284" lon="-75.298936">
        <ele>2.149175</ele>
        <time>2024-09-08T08:18:41.000Z</time>
      </trkpt>
      <trkpt lat="38.157199" lon="-75.300423">
        <ele>2.105578</ele>
        <time>2024-09-08T08:18:58.000Z</time>
      </trkpt>
      <trkpt lat="38.161603" lon="-75.307655">
        <ele>3.095817</ele>
        <time>2024-09-08T08:20:18.000Z</time>
      </trkpt>
      <trkpt lat="38.16177" lon="-75.308002">
        <ele>3.266934</ele>
        <time>2024-09-08T08:20:22.000Z</time>
      </trkpt>
      <trkpt lat="38.162036" lon="-75.308603">
        <ele>3.566582</ele>
        <time>2024-09-08T08:20:28.000Z</time>
      </trkpt>
      <trkpt lat="38.162226" lon="-75.309293">
        <ele>4.037248</ele>
        <time>2024-09-08T08:20:34.000Z</time>
      </trkpt>
      <trkpt lat="38.162332" lon="-75.310054">
        <ele>4.673429</ele>
        <time>2024-09-08T08:20:41.000Z</time>
      </trkpt>
      <trkpt lat="38.16236" lon="-75.310812">
        <ele>5.305697</ele>
        <time>2024-09-08T08:20:48.000Z</time>
      </trkpt>
      <trkpt lat="38.162262" lon="-75.314832">
        <ele>8.658638</ele>
        <time>2024-09-08T08:21:23.000Z</time>
      </trkpt>
      <trkpt lat="38.162318" lon="-75.315585">
        <ele>9.233043</ele>
        <time>2024-09-08T08:21:30.000Z</time>
      </trkpt>
      <trkpt lat="38.162502" lon="-75.316422">
        <ele>9.635424</ele>
        <time>2024-09-08T08:21:38.000Z</time>
      </trkpt>
      <trkpt lat="38.162704" lon="-75.317036">
        <ele>9.889397</ele>
        <time>2024-09-08T08:21:44.000Z</time>
      </trkpt>
      <trkpt lat="38.163013" lon="-75.317784">
        <ele>10.215934</ele>
        <time>2024-09-08T08:21:51.000Z</time>
      </trkpt>
      <trkpt lat="38.163299" lon="-75.318342">
        <ele>10.237774</ele>
        <time>2024-09-08T08:21:57.000Z</time>
      </trkpt>
      <trkpt lat="38.166528" lon="-75.325332">
        <ele>10.028592</ele>
        <time>2024-09-08T08:23:08.000Z</time>
      </trkpt>
      <trkpt lat="38.169177" lon="-75.331435">
        <ele>10.131012</ele>
        <time>2024-09-08T08:24:09.000Z</time>
      </trkpt>
      <trkpt lat="38.169502" lon="-75.33247">
        <ele>10.199151</ele>
        <time>2024-09-08T08:24:19.000Z</time>
      </trkpt>
      <trkpt lat="38.170003" lon="-75.335046">
        <ele>10.267092</ele>
        <time>2024-09-08T08:24:42.000Z</time>
      </trkpt>
      <trkpt lat="38.170488" lon="-75.337513">
        <ele>10.056462</ele>
        <time>2024-09-08T08:25:04.000Z</time>
      </trkpt>
      <trkpt lat="38.170653" lon="-75.338356">
        <ele>9.9554</ele>
        <time>2024-09-08T08:25:12.000Z</time>
      </trkpt>
      <trkpt lat="38.171235" lon="-75.341371">
        <ele>10.150126</ele>
        <time>2024-09-08T08:25:39.000Z</time>
      </trkpt>
      <trkpt lat="38.171417" lon="-75.342392">
        <ele>10.280679</ele>
        <time>2024-09-08T08:25:48.000Z</time>
      </trkpt>
      <trkpt lat="38.171473" lon="-75.342932">
        <ele>10.336234</ele>
        <time>2024-09-08T08:25:53.000Z</time>
      </trkpt>
      <trkpt lat="38.171484" lon="-75.343451">
        <ele>10.310468</ele>
        <time>2024-09-08T08:25:58.000Z</time>
      </trkpt>
      <trkpt lat="38.171425" lon="-75.344205">
        <ele>10.273487</ele>
        <time>2024-09-08T08:26:05.000Z</time>
      </trkpt>
      <trkpt lat="38.171072" lon="-75.347453">
        <ele>9.745859</ele>
        <time>2024-09-08T08:26:34.000Z</time>
      </trkpt>
      <trkpt lat="38.171052" lon="-75.347798">
        <ele>9.615606</ele>
        <time>2024-09-08T08:26:37.000Z</time>
      </trkpt>
      <trkpt lat="38.170749" lon="-75.350633">
        <ele>8.163023</ele>
        <time>2024-09-08T08:27:02.000Z</time>
      </trkpt>
      <trkpt lat="38.170717" lon="-75.350851">
        <ele>7.991841</ele>
        <time>2024-09-08T08:27:04.000Z</time>
      </trkpt>
      <trkpt lat="38.170694" lon="-75.351062">
        <ele>7.834432</ele>
        <time>2024-09-08T08:27:06.000Z</time>
      </trkpt>
      <trkpt lat="38.170657" lon="-75.351323">
        <ele>7.630666</ele>
        <time>2024-09-08T08:27:08.000Z</time>
      </trkpt>
      <trkpt lat="38.170467" lon="-75.353064">
        <ele>6.251972</ele>
        <time>2024-09-08T08:27:23.000Z</time>
      </trkpt>
      <trkpt lat="38.170395" lon="-75.353479">
        <ele>5.906552</ele>
        <time>2024-09-08T08:27:27.000Z</time>
      </trkpt>
      <trkpt lat="38.170284" lon="-75.353911">
        <ele>5.547067</ele>
        <time>2024-09-08T08:27:31.000Z</time>
      </trkpt>
      <trkpt lat="38.169904" lon="-75.354975">
        <ele>5.211131</ele>
        <time>2024-09-08T08:27:41.000Z</time>
      </trkpt>
      <trkpt lat="38.16979" lon="-75.355397">
        <ele>5.150274</ele>
        <time>2024-09-08T08:27:45.000Z</time>
      </trkpt>
      <trkpt lat="38.16964" lon="-75.356108">
        <ele>5.050035</ele>
        <time>2024-09-08T08:27:51.000Z</time>
      </trkpt>
      <trkpt lat="38.169604" lon="-75.356396">
        <ele>5.033685</ele>
        <time>2024-09-08T08:27:54.000Z</time>
      </trkpt>
      <trkpt lat="38.169445" lon="-75.356336">
        <ele>5.058325</ele>
        <time>2024-09-08T08:27:56.000Z</time>
      </trkpt>
      <trkpt lat="38.16931" lon="-75.356239">
        <ele>5.079421</ele>
        <time>2024-09-08T08:27:58.000Z</time>
      </trkpt>
      <trkpt lat="38.16922" lon="-75.356061">
        <ele>5.102102</ele>
        <time>2024-09-08T08:28:00.000Z</time>
      </trkpt>
      <trkpt lat="38.169116" lon="-75.355777">
        <ele>5.136373</ele>
        <time>2024-09-08T08:28:03.000Z</time>
      </trkpt>
      <trkpt lat="38.168407" lon="-75.353781">
        <ele>5.52128</ele>
        <time>2024-09-08T08:28:22.000Z</time>
      </trkpt>
      <trkpt lat="38.168194" lon="-75.353282">
        <ele>5.673766</ele>
        <time>2024-09-08T08:28:27.000Z</time>
      </trkpt>
      <trkpt lat="38.167964" lon="-75.353025">
        <ele>5.7765</ele>
        <time>2024-09-08T08:28:30.000Z</time>
      </trkpt>
      <trkpt lat="38.167346" lon="-75.352676">
        <ele>6.118779</ele>
        <time>2024-09-08T08:28:38.000Z</time>
      </trkpt>
      <trkpt lat="38.166795" lon="-75.352379">
        <ele>6.51725</ele>
        <time>2024-09-08T08:28:45.000Z</time>
      </trkpt>
      <trkpt lat="38.166607" lon="-75.352262">
        <ele>6.666806</ele>
        <time>2024-09-08T08:28:47.000Z</time>
      </trkpt>
      <trkpt lat="38.164926" lon="-75.350981">
        <ele>7.94599</ele>
        <time>2024-09-08T08:29:09.000Z</time>
      </trkpt>
      <trkpt lat="38.164588" lon="-75.350714">
        <ele>8.198497</ele>
        <time>2024-09-08T08:29:13.000Z</time>
      </trkpt>
      <trkpt lat="38.164416" lon="-75.350459">
        <ele>8.297652</ele>
        <time>2024-09-08T08:29:16.000Z</time>
      </trkpt>
      <trkpt lat="38.163826" lon="-75.349425">
        <ele>8.57311</ele>
        <time>2024-09-08T08:29:27.000Z</time>
      </trkpt>
      <trkpt lat="38.163366" lon="-75.348399">
        <ele>8.817483</ele>
        <time>2024-09-08T08:29:37.000Z</time>
      </trkpt>
      <trkpt lat="38.16336" lon="-75.348386">
        <ele>8.822991</ele>
        <time>2024-09-08T08:29:37.000Z</time>
      </trkpt>
      <trkpt lat="38.162664" lon="-75.347358">
        <ele>9.102986</ele>
        <time>2024-09-08T08:29:49.000Z</time>
      </trkpt>
      <trkpt lat="38.162249" lon="-75.346495">
        <ele>9.353505</ele>
        <time>2024-09-08T08:29:58.000Z</time>
      </trkpt>
      <trkpt lat="38.162069" lon="-75.346212">
        <ele>9.458788</ele>
        <time>2024-09-08T08:30:01.000Z</time>
      </trkpt>
      <trkpt lat="38.161927" lon="-75.346028">
        <ele>9.532272</ele>
        <time>2024-09-08T08:30:03.000Z</time>
      </trkpt>
      <trkpt lat="38.161741" lon="-75.345882">
        <ele>9.613297</ele>
        <time>2024-09-08T08:30:05.000Z</time>
      </trkpt>
      <trkpt lat="38.160399" lon="-75.344906">
        <ele>10.056728</ele>
        <time>2024-09-08T08:30:22.000Z</time>
      </trkpt>
      <trkpt lat="38.159271" lon="-75.344142">
        <ele>10.279567</ele>
        <time>2024-09-08T08:30:36.000Z</time>
      </trkpt>
      <trkpt lat="38.158448" lon="-75.343615">
        <ele>10.314863</ele>
        <time>2024-09-08T08:30:46.000Z</time>
      </trkpt>
      <trkpt lat="38.157019" lon="-75.342612">
        <ele>10.525357</ele>
        <time>2024-09-08T08:31:04.000Z</time>
      </trkpt>
      <trkpt lat="38.156832" lon="-75.342445">
        <ele>10.564523</ele>
        <time>2024-09-08T08:31:07.000Z</time>
      </trkpt>
      <trkpt lat="38.156598" lon="-75.342152">
        <ele>10.621759</ele>
        <time>2024-09-08T08:31:11.000Z</time>
      </trkpt>
      <trkpt lat="38.156008" lon="-75.341221">
        <ele>10.923173</ele>
        <time>2024-09-08T08:31:21.000Z</time>
      </trkpt>
      <trkpt lat="38.155062" lon="-75.339663">
        <ele>11.293789</ele>
        <time>2024-09-08T08:31:38.000Z</time>
      </trkpt>
      <trkpt lat="38.15486" lon="-75.339406">
        <ele>11.302856</ele>
        <time>2024-09-08T08:31:41.000Z</time>
      </trkpt>
      <trkpt lat="38.153808" lon="-75.33818">
        <ele>11.185265</ele>
        <time>2024-09-08T08:31:57.000Z</time>
      </trkpt>
      <trkpt lat="38.153642" lon="-75.337906">
        <ele>11.09074</ele>
        <time>2024-09-08T08:32:00.000Z</time>
      </trkpt>
      <trkpt lat="38.153503" lon="-75.337521">
        <ele>10.980385</ele>
        <time>2024-09-08T08:32:04.000Z</time>
      </trkpt>
      <trkpt lat="38.152684" lon="-75.334893">
        <ele>10.332312</ele>
        <time>2024-09-08T08:32:29.000Z</time>
      </trkpt>
      <trkpt lat="38.152595" lon="-75.334697">
        <ele>10.28298</ele>
        <time>2024-09-08T08:32:31.000Z</time>
      </trkpt>
      <trkpt lat="38.152463" lon="-75.334517">
        <ele>10.257815</ele>
        <time>2024-09-08T08:32:33.000Z</time>
      </trkpt>
      <trkpt lat="38.15219" lon="-75.334298">
        <ele>10.330704</ele>
        <time>2024-09-08T08:32:37.000Z</time>
      </trkpt>
      <trkpt lat="38.152082" lon="-75.334236">
        <ele>10.354764</ele>
        <time>2024-09-08T08:32:38.000Z</time>
      </trkpt>
      <trkpt lat="38.151741" lon="-75.33418">
        <ele>10.430272</ele>
        <time>2024-09-08T08:32:42.000Z</time>
      </trkpt>
      <trkpt lat="38.151363" lon="-75.334041">
        <ele>10.512456</ele>
        <time>2024-09-08T08:32:46.000Z</time>
      </trkpt>
      <trkpt lat="38.151141" lon="-75.333848">
        <ele>10.571627</ele>
        <time>2024-09-08T08:32:49.000Z</time>
      </trkpt>
      <trkpt lat="38.150874" lon="-75.333559">
        <ele>10.658747</ele>
        <time>2024-09-08T08:32:53.000Z</time>
      </trkpt>
      <trkpt lat="38.149604" lon="-75.33195">
        <ele>11.541021</ele>
        <time>2024-09-08T08:33:13.000Z</time>
      </trkpt>
      <trkpt lat="38.149444" lon="-75.331759">
        <ele>11.593311</ele>
        <time>2024-09-08T08:33:15.000Z</time>
      </trkpt>
      <trkpt lat="38.149092" lon="-75.331452">
        <ele>11.690706</ele>
        <time>2024-09-08T08:33:20.000Z</time>
      </trkpt>
      <trkpt lat="38.148626" lon="-75.331107">
        <ele>11.814857</ele>
        <time>2024-09-08T08:33:26.000Z</time>
      </trkpt>
      <trkpt lat="38.148117" lon="-75.330659">
        <ele>11.932434</ele>
        <time>2024-09-08T08:33:33.000Z</time>
      </trkpt>
      <trkpt lat="38.146663" lon="-75.3294">
        <ele>11.58695</ele>
        <time>2024-09-08T08:33:53.000Z</time>
      </trkpt>
      <trkpt lat="38.146414" lon="-75.329154">
        <ele>11.536039</ele>
        <time>2024-09-08T08:33:57.000Z</time>
      </trkpt>
      <trkpt lat="38.146165" lon="-75.328812">
        <ele>11.476291</ele>
        <time>2024-09-08T08:34:01.000Z</time>
      </trkpt>
      <trkpt lat="38.1458" lon="-75.328181">
        <ele>11.379671</ele>
        <time>2024-09-08T08:34:08.000Z</time>
      </trkpt>
      <trkpt lat="38.145579" lon="-75.32791">
        <ele>11.329941</ele>
        <time>2024-09-08T08:34:11.000Z</time>
      </trkpt>
      <trkpt lat="38.145391" lon="-75.327772">
        <ele>11.299095</ele>
        <time>2024-09-08T08:34:13.000Z</time>
      </trkpt>
      <trkpt lat="38.145127" lon="-75.327611">
        <ele>11.283969</ele>
        <time>2024-09-08T08:34:16.000Z</time>
      </trkpt>
      <trkpt lat="38.143933" lon="-75.327015">
        <ele>11.220418</ele>
        <time>2024-09-08T08:34:30.000Z</time>
      </trkpt>
      <trkpt lat="38.143464" lon="-75.326661">
        <ele>11.19473</ele>
        <time>2024-09-08T08:34:36.000Z</time>
      </trkpt>
      <trkpt lat="38.14311" lon="-75.326353">
        <ele>11.175168</ele>
        <time>2024-09-08T08:34:41.000Z</time>
      </trkpt>
      <trkpt lat="38.142843" lon="-75.326063">
        <ele>11.15966</ele>
        <time>2024-09-08T08:34:45.000Z</time>
      </trkpt>
      <trkpt lat="38.142636" lon="-75.325814">
        <ele>11.14669</ele>
        <time>2024-09-08T08:34:48.000Z</time>
      </trkpt>
      <trkpt lat="38.14181" lon="-75.324549">
        <ele>10.790904</ele>
        <time>2024-09-08T08:35:02.000Z</time>
      </trkpt>
      <trkpt lat="38.13985" lon="-75.321456">
        <ele>9.162161</ele>
        <time>2024-09-08T08:35:37.000Z</time>
      </trkpt>
      <trkpt lat="38.139195" lon="-75.322149">
        <ele>8.744805</ele>
        <time>2024-09-08T08:35:46.000Z</time>
      </trkpt>
      <trkpt lat="38.138909" lon="-75.32244">
        <ele>8.567591</ele>
        <time>2024-09-08T08:35:50.000Z</time>
      </trkpt>
      <trkpt lat="38.138504" lon="-75.322958">
        <ele>8.472431</ele>
        <time>2024-09-08T08:35:56.000Z</time>
      </trkpt>
      <trkpt lat="38.13757" lon="-75.324326">
        <ele>8.403296</ele>
        <time>2024-09-08T08:36:12.000Z</time>
      </trkpt>
      <trkpt lat="38.137164" lon="-75.324663">
        <ele>8.584355</ele>
        <time>2024-09-08T08:36:17.000Z</time>
      </trkpt>
      <trkpt lat="38.136703" lon="-75.324987">
        <ele>8.780597</ele>
        <time>2024-09-08T08:36:23.000Z</time>
      </trkpt>
      <trkpt lat="38.13627" lon="-75.325243">
        <ele>8.960853</ele>
        <time>2024-09-08T08:36:28.000Z</time>
      </trkpt>
      <trkpt lat="38.135961" lon="-75.325393">
        <ele>9.084198</ele>
        <time>2024-09-08T08:36:32.000Z</time>
      </trkpt>
      <trkpt lat="38.13422" lon="-75.326121">
        <ele>9.78578</ele>
        <time>2024-09-08T08:36:52.000Z</time>
      </trkpt>
      <trkpt lat="38.133656" lon="-75.326438">
        <ele>9.997206</ele>
        <time>2024-09-08T08:36:59.000Z</time>
      </trkpt>
      <trkpt lat="38.133165" lon="-75.326766">
        <ele>10.188478</ele>
        <time>2024-09-08T08:37:05.000Z</time>
      </trkpt>
      <trkpt lat="38.132853" lon="-75.326906">
        <ele>10.304437</ele>
        <time>2024-09-08T08:37:09.000Z</time>
      </trkpt>
      <trkpt lat="38.132488" lon="-75.326949">
        <ele>10.457868</ele>
        <time>2024-09-08T08:37:13.000Z</time>
      </trkpt>
      <trkpt lat="38.131648" lon="-75.326901">
        <ele>10.904007</ele>
        <time>2024-09-08T08:37:22.000Z</time>
      </trkpt>
      <trkpt lat="38.13131" lon="-75.326934">
        <ele>11.076795</ele>
        <time>2024-09-08T08:37:26.000Z</time>
      </trkpt>
      <trkpt lat="38.130101" lon="-75.327235">
        <ele>11.486121</ele>
        <time>2024-09-08T08:37:40.000Z</time>
      </trkpt>
      <trkpt lat="38.129228" lon="-75.327527">
        <ele>11.693601</ele>
        <time>2024-09-08T08:37:50.000Z</time>
      </trkpt>
      <trkpt lat="38.128807" lon="-75.327718">
        <ele>11.626844</ele>
        <time>2024-09-08T08:37:55.000Z</time>
      </trkpt>
      <trkpt lat="38.124055" lon="-75.330238">
        <ele>10.262746</ele>
        <time>2024-09-08T08:38:52.000Z</time>
      </trkpt>
      <trkpt lat="38.123911" lon="-75.330334">
        <ele>10.175888</ele>
        <time>2024-09-08T08:38:54.000Z</time>
      </trkpt>
      <trkpt lat="38.123351" lon="-75.329505">
        <ele>9.685154</ele>
        <time>2024-09-08T08:39:04.000Z</time>
      </trkpt>
      <trkpt lat="38.12314" lon="-75.329133">
        <ele>9.480757</ele>
        <time>2024-09-08T08:39:08.000Z</time>
      </trkpt>
      <trkpt lat="38.122943" lon="-75.32862">
        <ele>9.089247</ele>
        <time>2024-09-08T08:39:13.000Z</time>
      </trkpt>
      <trkpt lat="38.122732" lon="-75.327941">
        <ele>8.196746</ele>
        <time>2024-09-08T08:39:19.000Z</time>
      </trkpt>
      <trkpt lat="38.122025" lon="-75.324951">
        <ele>4.564037</ele>
        <time>2024-09-08T08:39:46.000Z</time>
      </trkpt>
      <trkpt lat="38.119591" lon="-75.314599">
        <ele>1.474435</ele>
        <time>2024-09-08T08:41:21.000Z</time>
      </trkpt>
      <trkpt lat="38.119545" lon="-75.314413">
        <ele>1.455623</ele>
        <time>2024-09-08T08:41:23.000Z</time>
      </trkpt>
      <trkpt lat="38.118864" lon="-75.311525">
        <ele>1.413328</ele>
        <time>2024-09-08T08:41:49.000Z</time>
      </trkpt>
      <trkpt lat="38.118792" lon="-75.311126">
        <ele>1.403252</ele>
        <time>2024-09-08T08:41:53.000Z</time>
      </trkpt>
      <trkpt lat="38.11876" lon="-75.310767">
        <ele>1.367989</ele>
        <time>2024-09-08T08:41:56.000Z</time>
      </trkpt>
      <trkpt lat="38.118786" lon="-75.310357">
        <ele>1.328382</ele>
        <time>2024-09-08T08:42:00.000Z</time>
      </trkpt>
      <trkpt lat="38.118853" lon="-75.310117">
        <ele>1.304068</ele>
        <time>2024-09-08T08:42:02.000Z</time>
      </trkpt>
      <trkpt lat="38.119014" lon="-75.309779">
        <ele>1.266903</ele>
        <time>2024-09-08T08:42:05.000Z</time>
      </trkpt>
      <trkpt lat="38.119181" lon="-75.309592">
        <ele>1.239614</ele>
        <time>2024-09-08T08:42:07.000Z</time>
      </trkpt>
      <trkpt lat="38.125963" lon="-75.303903">
        <ele>1.010304</ele>
        <time>2024-09-08T08:43:37.000Z</time>
      </trkpt>
      <trkpt lat="38.126012" lon="-75.303854">
        <ele>1.009735</ele>
        <time>2024-09-08T08:43:38.000Z</time>
      </trkpt>
      <trkpt lat="38.126362" lon="-75.303567">
        <ele>1.00623</ele>
        <time>2024-09-08T08:43:43.000Z</time>
      </trkpt>
      <trkpt lat="38.127945" lon="-75.302209">
        <ele>0.999999</ele>
        <time>2024-09-08T08:44:04.000Z</time>
      </trkpt>
      <trkpt lat="38.128763" lon="-75.301705">
        <ele>1.005189</ele>
        <time>2024-09-08T08:44:14.000Z</time>
      </trkpt>
      <trkpt lat="38.129366" lon="-75.301368">
        <ele>1.016433</ele>
        <time>2024-09-08T08:44:21.000Z</time>
      </trkpt>
      <trkpt lat="38.132647" lon="-75.306901">
        <ele>1.253022</ele>
        <time>2024-09-08T08:45:22.000Z</time>
      </trkpt>
      <trkpt lat="38.132878" lon="-75.307536">
        <ele>1.301647</ele>
        <time>2024-09-08T08:45:28.000Z</time>
      </trkpt>
      <trkpt lat="38.134305" lon="-75.31232">
        <ele>1.693411</ele>
        <time>2024-09-08T08:46:13.000Z</time>
      </trkpt>
      <trkpt lat="38.135369" lon="-75.315844">
        <ele>1.206751</ele>
        <time>2024-09-08T08:46:46.000Z</time>
      </trkpt>
      <trkpt lat="38.135548" lon="-75.316265">
        <ele>1.149275</ele>
        <time>2024-09-08T08:46:50.000Z</time>
      </trkpt>
      <trkpt lat="38.13612" lon="-75.317404">
        <ele>1.339622</ele>
        <time>2024-09-08T08:47:02.000Z</time>
      </trkpt>
      <trkpt lat="38.136502" lon="-75.318385">
        <ele>1.574841</ele>
        <time>2024-09-08T08:47:12.000Z</time>
      </trkpt>
      <trkpt lat="38.136643" lon="-75.318747">
        <ele>1.933356</ele>
        <time>2024-09-08T08:47:16.000Z</time>
      </trkpt>
      <trkpt lat="38.136991" lon="-75.319426">
        <ele>2.670444</ele>
        <time>2024-09-08T08:47:23.000Z</time>
      </trkpt>
      <trkpt lat="38.137161" lon="-75.319718">
        <ele>3.009017</ele>
        <time>2024-09-08T08:47:26.000Z</time>
      </trkpt>
      <trkpt lat="38.139182" lon="-75.322146">
        <ele>7.586103</ele>
        <time>2024-09-08T08:47:57.000Z</time>
      </trkpt>
      <trkpt lat="38.139857" lon="-75.321465">
        <ele>8.725672</ele>
        <time>2024-09-08T08:48:07.000Z</time>
      </trkpt>
      <trkpt lat="38.140092" lon="-75.321231">
        <ele>9.115504</ele>
        <time>2024-09-08T08:48:10.000Z</time>
      </trkpt>
      <trkpt lat="38.140308" lon="-75.321078">
        <ele>9.365159</ele>
        <time>2024-09-08T08:48:13.000Z</time>
      </trkpt>
      <trkpt lat="38.140496" lon="-75.320982">
        <ele>9.466334</ele>
        <time>2024-09-08T08:48:15.000Z</time>
      </trkpt>
      <trkpt lat="38.140674" lon="-75.320952">
        <ele>9.548517</ele>
        <time>2024-09-08T08:48:17.000Z</time>
      </trkpt>
      <trkpt lat="38.140924" lon="-75.320931">
        <ele>9.675099</ele>
        <time>2024-09-08T08:48:20.000Z</time>
      </trkpt>
      <trkpt lat="38.143852" lon="-75.321108">
        <ele>10.852156</ele>
        <time>2024-09-08T08:48:53.000Z</time>
      </trkpt>
      <trkpt lat="38.14421" lon="-75.321008">
        <ele>10.90182</ele>
        <time>2024-09-08T08:48:57.000Z</time>
      </trkpt>
      <trkpt lat="38.145581" lon="-75.320266">
        <ele>11.074825</ele>
        <time>2024-09-08T08:49:14.000Z</time>
      </trkpt>
      <trkpt lat="38.145951" lon="-75.320133">
        <ele>11.058114</ele>
        <time>2024-09-08T08:49:18.000Z</time>
      </trkpt>
      <trkpt lat="38.146277" lon="-75.320082">
        <ele>11.043956</ele>
        <time>2024-09-08T08:49:22.000Z</time>
      </trkpt>
      <trkpt lat="38.148243" lon="-75.320092">
        <ele>10.850741</ele>
        <time>2024-09-08T08:49:44.000Z</time>
      </trkpt>
      <trkpt lat="38.148608" lon="-75.320045">
        <ele>10.795309</ele>
        <time>2024-09-08T08:49:48.000Z</time>
      </trkpt>
      <trkpt lat="38.148834" lon="-75.319943">
        <ele>10.761412</ele>
        <time>2024-09-08T08:49:51.000Z</time>
      </trkpt>
      <trkpt lat="38.14907" lon="-75.319766">
        <ele>10.690903</ele>
        <time>2024-09-08T08:49:54.000Z</time>
      </trkpt>
      <trkpt lat="38.15101" lon="-75.318029">
        <ele>9.312913</ele>
        <time>2024-09-08T08:50:20.000Z</time>
      </trkpt>
      <trkpt lat="38.151674" lon="-75.317425">
        <ele>8.649977</ele>
        <time>2024-09-08T08:50:29.000Z</time>
      </trkpt>
      <trkpt lat="38.152071" lon="-75.317161">
        <ele>8.358901</ele>
        <time>2024-09-08T08:50:34.000Z</time>
      </trkpt>
      <trkpt lat="38.152531" lon="-75.316965">
        <ele>8.279989</ele>
        <time>2024-09-08T08:50:39.000Z</time>
      </trkpt>
      <trkpt lat="38.152769" lon="-75.31692">
        <ele>8.23964</ele>
        <time>2024-09-08T08:50:42.000Z</time>
      </trkpt>
      <trkpt lat="38.152931" lon="-75.316925">
        <ele>8.214945</ele>
        <time>2024-09-08T08:50:44.000Z</time>
      </trkpt>
      <trkpt lat="38.1533" lon="-75.316997">
        <ele>8.15235</ele>
        <time>2024-09-08T08:50:48.000Z</time>
      </trkpt>
      <trkpt lat="38.153619" lon="-75.317151">
        <ele>8.095848</ele>
        <time>2024-09-08T08:50:52.000Z</time>
      </trkpt>
      <trkpt lat="38.154989" lon="-75.318021">
        <ele>8.720826</ele>
        <time>2024-09-08T08:51:09.000Z</time>
      </trkpt>
      <trkpt lat="38.155295" lon="-75.318199">
        <ele>8.868003</ele>
        <time>2024-09-08T08:51:13.000Z</time>
      </trkpt>
      <trkpt lat="38.155636" lon="-75.318292">
        <ele>8.96177</ele>
        <time>2024-09-08T08:51:17.000Z</time>
      </trkpt>
      <trkpt lat="38.155812" lon="-75.318293">
        <ele>9.008759</ele>
        <time>2024-09-08T08:51:19.000Z</time>
      </trkpt>
      <trkpt lat="38.156056" lon="-75.318228">
        <ele>9.07212</ele>
        <time>2024-09-08T08:51:22.000Z</time>
      </trkpt>
      <trkpt lat="38.156315" lon="-75.318049">
        <ele>9.150084</ele>
        <time>2024-09-08T08:51:25.000Z</time>
      </trkpt>
      <trkpt lat="38.156539" lon="-75.317781">
        <ele>9.232919</ele>
        <time>2024-09-08T08:51:28.000Z</time>
      </trkpt>
      <trkpt lat="38.15874" lon="-75.314611">
        <ele>9.60543</ele>
        <time>2024-09-08T08:52:05.000Z</time>
      </trkpt>
      <trkpt lat="38.160328" lon="-75.312267">
        <ele>7.575723</ele>
        <time>2024-09-08T08:52:32.000Z</time>
      </trkpt>
      <trkpt lat="38.162336" lon="-75.310042">
        <ele>4.610072</ele>
        <time>2024-09-08T08:53:02.000Z</time>
      </trkpt>
      <trkpt lat="38.162216" lon="-75.309304">
        <ele>3.995356</ele>
        <time>2024-09-08T08:53:09.000Z</time>
      </trkpt>
      <trkpt lat="38.162027" lon="-75.30861">
        <ele>3.497508</ele>
        <time>2024-09-08T08:53:15.000Z</time>
      </trkpt>
      <trkpt lat="38.161778" lon="-75.307995">
        <ele>3.234524</ele>
        <time>2024-09-08T08:53:21.000Z</time>
      </trkpt>
      <trkpt lat="38.161602" lon="-75.307662">
        <ele>3.084325</ele>
        <time>2024-09-08T08:53:25.000Z</time>
      </trkpt>
      <trkpt lat="38.157193" lon="-75.300422">
        <ele>2.079826</ele>
        <time>2024-09-08T08:54:45.000Z</time>
      </trkpt>
      <trkpt lat="38.156277" lon="-75.298941">
        <ele>2.146223</ele>
        <time>2024-09-08T08:55:01.000Z</time>
      </trkpt>
      <trkpt lat="38.156037" lon="-75.298548">
        <ele>2.1956</ele>
        <time>2024-09-08T08:55:05.000Z</time>
      </trkpt>
      <trkpt lat="38.152565" lon="-75.292882">
        <ele>2.825833</ele>
        <time>2024-09-08T08:56:08.000Z</time>
      </trkpt>
      <trkpt lat="38.150945" lon="-75.290238">
        <ele>2.542058</ele>
        <time>2024-09-08T08:56:37.000Z</time>
      </trkpt>
      <trkpt lat="38.149967" lon="-75.288632">
        <ele>1.881584</ele>
        <time>2024-09-08T08:56:55.000Z</time>
      </trkpt>
      <trkpt lat="38.150821" lon="-75.287859">
        <ele>1.29966</ele>
        <time>2024-09-08T08:57:07.000Z</time>
      </trkpt>
      <trkpt lat="38.151" lon="-75.28765">
        <ele>1.17273</ele>
        <time>2024-09-08T08:57:10.000Z</time>
      </trkpt>
      <trkpt lat="38.150985" lon="-75.287557">
        <ele>1.134751</ele>
        <time>2024-09-08T08:57:11.000Z</time>
      </trkpt>
      <trkpt lat="38.150977" lon="-75.287534">
        <ele>1.115407</ele>
        <time>2024-09-08T08:57:11.000Z</time>
      </trkpt>
      <trkpt lat="38.150944" lon="-75.287486">
        <ele>1.096395</ele>
        <time>2024-09-08T08:57:12.000Z</time>
      </trkpt>
      <trkpt lat="38.150593" lon="-75.286936">
        <ele>1.00854</ele>
        <time>2024-09-08T08:57:18.000Z</time>
      </trkpt>
      <trkpt lat="38.150379" lon="-75.286591">
        <ele>0.95403721729</ele>
        <time>2024-09-08T08:57:22.000Z</time>
      </trkpt>
      <trkpt lat="38.150203" lon="-75.286309">
        <ele>0.909381515844</ele>
        <time>2024-09-08T08:57:25.000Z</time>
      </trkpt>
      <trkpt lat="38.150043" lon="-75.286065">
        <ele>0.869975055949</ele>
        <time>2024-09-08T08:57:28.000Z</time>
      </trkpt>
      <trkpt lat="38.148943" lon="-75.286983">
        <ele>0.662444845511</ele>
        <time>2024-09-08T08:57:43.000Z</time>
      </trkpt>
    </trkseg>
  </trk>
</gpx>

<!--
Performance optimized by W3 Total Cache. Learn more: https://www.boldgrid.com/w3-total-cache/?utm_source=w3tc&utm_medium=footer_comment&utm_campaign=free_plugin

Page Caching using Disk: Enhanced{w3tc_pagecache_reject_reason} 

Served from: www.aquabike.world @ 2026-05-10 20:06:02 by W3 Total Cache
-->